Time;durP1;ratioP1;P1;durP2;ratioP2;P2;SDS_P1;SDS_P2;PMS_P1;PMS_P2;Temp;Humidity;BMP_temperature;BMP_pressure;BME280_temperature;BME280_humidity;BME280_pressure;Samples;Min_cycle;Max_cycle;Signal;HPM_P1;HPM_P2
2021/03/08 00:01:11;;;;;;;57.63;36.13;;;;;;;-1.24;76.65;94866.16;4817314;24;20061;-77
2021/03/08 06:01:03;;;;;;;31.13;20.00;;;;;;;10.06;41.61;94741.72;5695200;24;20045;-80
2021/03/08 06:04:00;;;;;;;23.35;20.13;;;;;;;10.37;41.04;94661.41;4856597;29;20046;-80
2021/03/08 06:07:00;;;;;;;23.67;21.05;;;;;;;12.24;37.10;94732.50;4845269;29;20030;-82
2021/03/08 06:09:26;;;;;;;26.13;22.83;;;;;;;12.07;36.93;94731.97;4826062;29;20060;-85
2021/03/08 06:11:53;;;;;;;25.50;22.75;;;;;;;12.47;36.80;94736.50;4840554;29;20028;-85
2021/03/08 06:14:22;;;;;;;23.85;21.13;;;;;;;12.77;36.52;94733.75;4839780;29;20040;-85
2021/03/08 06:16:48;;;;;;;23.50;21.05;;;;;;;11.41;38.67;94732.97;4839473;29;20026;-82
2021/03/08 06:19:13;;;;;;;25.60;21.27;;;;;;;12.43;36.26;94740.47;4825098;29;20109;-78
2021/03/08 06:21:40;;;;;;;24.77;22.30;;;;;;;12.88;35.53;94728.00;4823430;29;20514;-79
2021/03/08 06:24:06;;;;;;;24.52;22.13;;;;;;;13.15;34.96;94746.22;4825294;29;20133;-79
2021/03/08 06:26:32;;;;;;;27.10;24.35;;;;;;;11.54;38.21;94728.75;4823962;29;20066;-78
2021/03/08 06:28:58;;;;;;;25.70;23.20;;;;;;;13.13;35.80;94744.81;4840946;29;20415;-82
2021/03/08 06:31:26;;;;;;;35.65;31.80;;;;;;;13.86;34.38;94733.72;4838629;29;20029;-78
2021/03/08 06:33:55;;;;;;;45.20;28.73;;;;;;;15.50;32.64;94722.50;4854786;29;20029;-81
2021/03/08 06:36:22;;;;;;;48.30;37.47;;;;;;;17.08;30.41;94730.91;4824725;29;20081;-80
2021/03/08 06:38:47;;;;;;;29.38;26.50;;;;;;;15.92;31.57;94736.78;4823127;29;20040;-79
2021/03/08 06:41:13;;;;;;;23.55;21.15;;;;;;;15.45;32.98;94740.53;4839612;29;20484;-79
2021/03/08 06:43:39;;;;;;;28.75;26.02;;;;;;;14.99;33.37;94751.91;4838598;29;20033;-79
2021/03/08 06:46:04;;;;;;;30.92;25.25;;;;;;;10.90;40.27;94748.47;4809135;29;20030;-76
2021/03/08 06:48:30;;;;;;;27.15;23.02;;;;;;;12.31;40.11;94743.75;4823314;29;20033;-76
2021/03/08 06:51:16;;;;;;;29.33;25.90;;;;;;;9.35;45.07;94752.31;4839728;29;20207;-75
2021/03/08 06:53:41;;;;;;;28.27;25.33;;;;;;;9.40;45.07;94754.41;4825321;29;20036;-75
2021/03/08 06:56:17;;;;;;;29.85;26.60;;;;;;;10.50;43.74;94751.41;4823046;29;20025;-75
2021/03/08 06:58:43;;;;;;;26.40;23.60;;;;;;;16.01;32.96;94736.31;4839562;29;20488;-76
2021/03/08 07:01:28;;;;;;;27.77;24.38;;;;;;;13.29;37.32;94743.69;4804051;29;20125;-76
2021/03/08 07:03:54;;;;;;;26.25;23.55;;;;;;;16.88;32.30;94746.00;4835497;29;20174;-75
2021/03/08 07:06:20;;;;;;;23.63;21.15;;;;;;;12.76;38.21;94740.72;4810209;29;20023;-77
2021/03/08 07:08:45;;;;;;;26.20;22.60;;;;;;;14.47;35.96;94751.91;4800357;29;20046;-78
2021/03/08 07:11:19;;;;;;;23.35;21.15;;;;;;;14.62;35.71;94740.25;4818150;29;20061;-78
2021/03/08 07:13:44;;;;;;;23.40;21.10;;;;;;;16.01;32.49;94736.31;4799623;29;20187;-78
2021/03/08 07:16:10;;;;;;;24.30;21.83;;;;;;;12.28;38.16;94731.13;4801925;29;20064;-80
2021/03/08 07:18:36;;;;;;;23.42;21.08;;;;;;;15.98;33.01;94733.34;4832264;29;20030;-77
2021/03/08 07:21:20;;;;;;;25.67;23.23;;;;;;;15.61;33.72;94730.47;4818578;29;20516;-79
2021/03/08 07:23:49;;;;;;;23.77;21.38;;;;;;;16.17;31.30;94728.00;4836203;29;20041;-77
2021/03/08 07:26:16;;;;;;;26.20;23.85;;;;;;;17.90;29.57;94734.88;4816776;29;20034;-78
2021/03/08 07:28:42;;;;;;;23.77;21.42;;;;;;;17.85;28.53;94726.91;4817251;29;20105;-77
2021/03/08 07:31:08;;;;;;;24.48;22.50;;;;;;;19.43;27.62;94723.44;4817546;29;20034;-78
2021/03/08 07:33:33;;;;;;;24.52;21.90;;;;;;;16.46;31.09;94731.81;4832592;29;20038;-77
2021/03/08 07:35:59;;;;;;;23.55;21.23;;;;;;;16.47;31.32;94724.78;4818179;29;20407;-77
2021/03/08 07:38:36;;;;;;;24.73;22.42;;;;;;;19.15;27.94;94718.06;4818715;29;20034;-76
2021/03/08 07:41:11;;;;;;;25.27;22.77;;;;;;;14.92;32.88;94721.59;4818472;29;20500;-76
2021/03/08 07:43:37;;;;;;;26.75;24.20;;;;;;;17.55;30.06;94726.00;4833347;29;20026;-76
2021/03/08 07:46:02;;;;;;;29.48;26.65;;;;;;;14.77;32.66;94716.59;4819101;29;20057;-75
2021/03/08 07:48:28;;;;;;;26.42;23.92;;;;;;;12.20;40.78;94723.50;4803512;29;20034;-77
2021/03/08 07:50:53;;;;;;;25.73;23.25;;;;;;;11.52;41.13;94697.03;4788946;29;20412;-81
2021/03/08 07:53:24;;;;;;;30.70;25.73;;;;;;;10.31;44.53;94715.66;4802546;29;20582;-78
2021/03/08 07:55:49;;;;;;;29.38;26.27;;;;;;;8.22;48.57;94726.72;4829787;29;20034;-76
2021/03/08 07:58:16;;;;;;;30.92;27.63;;;;;;;10.24;46.57;94712.19;4820225;29;20368;-76
2021/03/08 08:00:41;;;;;;;30.48;27.17;;;;;;;11.20;43.45;94710.41;4817397;29;20037;-77
2021/03/08 08:03:06;;;;;;;26.50;23.77;;;;;;;11.34;44.06;94696.59;4804565;29;20026;-77
2021/03/08 08:05:32;;;;;;;26.08;23.35;;;;;;;10.79;45.62;94704.06;4801595;29;20038;-77
2021/03/08 08:07:57;;;;;;;30.02;23.75;;;;;;;10.16;46.37;94712.25;4836558;29;20038;-75
2021/03/08 08:10:23;;;;;;;27.33;24.30;;;;;;;10.27;46.04;94704.09;4818089;29;20230;-79
2021/03/08 08:12:49;;;;;;;26.15;22.13;;;;;;;10.58;44.84;94708.16;4803907;29;20045;-76
2021/03/08 08:15:17;;;;;;;22.63;19.77;;;;;;;11.00;44.15;94709.34;4806372;29;20034;-76
2021/03/08 08:17:45;;;;;;;24.48;21.92;;;;;;;10.94;44.84;94716.03;4813835;29;20042;-76
2021/03/08 08:20:11;;;;;;;25.17;21.88;;;;;;;11.00;44.34;94707.56;4809570;29;20030;-77
2021/03/08 08:22:36;;;;;;;23.42;19.80;;;;;;;11.49;43.27;94710.34;4805285;29;20453;-76
2021/03/08 08:25:03;;;;;;;23.90;19.88;;;;;;;11.02;44.35;94710.75;4806498;29;20083;-76
2021/03/08 08:27:29;;;;;;;22.60;20.15;;;;;;;11.01;44.27;94710.94;4837837;29;20090;-78
2021/03/08 08:29:59;;;;;;;23.88;21.35;;;;;;;10.90;44.36;94714.78;4805397;29;20038;-76
2021/03/08 08:32:24;;;;;;;26.75;22.38;;;;;;;11.11;44.32;94714.88;4800186;29;20044;-76
2021/03/08 08:34:50;;;;;;;26.35;22.38;;;;;;;11.57;43.53;94709.44;4819355;29;20034;-76
2021/03/08 08:37:23;;;;;;;28.23;23.92;;;;;;;9.94;50.30;94714.66;4837181;29;20033;-76
2021/03/08 08:39:51;;;;;;;27.17;20.85;;;;;;;10.94;45.44;94708.28;4819076;29;20156;-77
2021/03/08 08:42:21;;;;;;;24.63;20.75;;;;;;;11.69;43.65;94697.59;4838171;29;20534;-78
2021/03/08 08:44:48;;;;;;;26.73;22.23;;;;;;;10.16;45.94;94704.47;4802412;29;20054;-78
2021/03/08 08:47:34;;;;;;;23.48;20.98;;;;;;;11.98;43.26;94694.91;4831917;29;20022;-77
2021/03/08 08:49:59;;;;;;;29.75;21.98;;;;;;;11.04;43.51;94684.69;4827486;29;20053;-77
2021/03/08 08:52:44;;;;;;;27.08;24.10;;;;;;;10.29;48.01;94695.16;4836464;29;20095;-77
2021/03/08 08:55:12;;;;;;;30.92;26.52;;;;;;;11.80;43.36;94676.41;4821706;29;20121;-78
2021/03/08 08:57:38;;;;;;;28.65;24.85;;;;;;;12.67;41.61;94684.69;4798009;29;20046;-76
2021/03/08 09:00:14;;;;;;;27.45;24.00;;;;;;;12.15;42.86;94687.69;4814316;29;20034;-76
2021/03/08 09:02:40;;;;;;;26.60;23.33;;;;;;;11.77;42.66;94689.72;4834275;29;20054;-76
2021/03/08 09:05:28;;;;;;;26.15;21.77;;;;;;;13.64;38.88;94685.41;4830292;29;20034;-76
2021/03/08 09:08:30;;;;;;;25.60;22.65;;;;;;;12.17;42.24;94682.31;4829134;29;20034;-75
2021/03/08 09:10:56;;;;;;;28.85;23.95;;;;;;;11.59;43.98;94673.75;4774935;30;20036;-76
2021/03/08 09:13:23;;;;;;;28.35;22.33;;;;;;;13.78;39.24;94673.19;4788043;29;20049;-76
2021/03/08 09:15:48;;;;;;;28.27;23.73;;;;;;;12.30;40.67;94670.22;4810276;29;20030;-74
2021/03/08 09:18:14;;;;;;;27.30;22.55;;;;;;;13.54;40.31;94669.34;4828968;29;20037;-75
2021/03/08 09:20:41;;;;;;;24.27;21.52;;;;;;;13.44;39.24;94663.72;4828879;29;20041;-75
2021/03/08 09:23:20;;;;;;;25.23;21.90;;;;;;;13.66;38.30;94659.97;4814807;29;20116;-77
2021/03/08 09:25:51;;;;;;;23.70;21.33;;;;;;;13.69;38.51;94660.38;4831247;29;20030;-78
2021/03/08 09:28:17;;;;;;;25.27;22.58;;;;;;;11.43;42.15;94656.59;4802136;29;20033;-78
2021/03/08 09:30:46;;;;;;;23.60;20.88;;;;;;;12.89;40.36;94647.25;4803261;29;20125;-80
2021/03/08 09:33:18;;;;;;;26.15;20.92;;;;;;;12.27;41.16;94646.44;4807096;29;20038;-78
2021/03/08 09:35:45;;;;;;;25.55;22.08;;;;;;;9.59;45.62;94660.09;4800932;29;20091;-78
2021/03/08 09:38:20;;;;;;;24.95;20.33;;;;;;;9.39;48.00;94657.97;4812565;29;20026;-77
2021/03/08 09:40:49;;;;;;;23.63;19.13;;;;;;;10.39;45.38;94648.31;4805195;29;20045;-79
2021/03/08 09:43:24;;;;;;;27.88;20.85;;;;;;;12.86;41.76;94650.22;4824119;29;20477;-79
2021/03/08 09:46:03;;;;;;;23.92;20.98;;;;;;;10.96;43.52;94645.91;4811022;29;20042;-79
2021/03/08 09:48:30;;;;;;;22.55;19.60;;;;;;;9.50;46.50;94647.22;4835205;29;20500;-79
2021/03/08 09:51:08;;;;;;;23.92;21.13;;;;;;;10.02;45.45;94652.50;4803791;29;20117;-80
2021/03/08 09:53:35;;;;;;;23.23;20.73;;;;;;;12.71;41.10;94640.94;4831361;29;20065;-79
2021/03/08 09:56:14;;;;;;;23.52;21.30;;;;;;;13.18;41.44;94641.81;4833725;29;20026;-83
2021/03/08 09:58:40;;;;;;;22.42;20.00;;;;;;;13.01;40.04;94629.28;4820088;29;20060;-81
2021/03/08 10:01:24;;;;;;;24.55;22.05;;;;;;;13.98;39.33;94632.38;4809455;29;20050;-81
2021/03/08 10:03:49;;;;;;;25.15;22.20;;;;;;;11.84;42.83;94630.94;4829994;29;20066;-78
2021/03/08 10:06:28;;;;;;;26.23;23.42;;;;;;;12.79;42.69;94626.00;4802958;29;20206;-79
2021/03/08 10:08:54;;;;;;;25.23;22.48;;;;;;;11.04;44.52;94625.84;4808103;29;20197;-83
2021/03/08 10:11:24;;;;;;;29.30;23.15;;;;;;;12.46;42.65;94615.41;4808161;29;20027;-82
2021/03/08 10:13:50;;;;;;;23.30;20.98;;;;;;;14.18;38.93;94610.56;4812765;29;20492;-80
2021/03/08 10:16:25;;;;;;;24.58;22.08;;;;;;;13.80;40.23;94614.75;4812493;29;20037;-82
2021/03/08 10:18:51;;;;;;;22.80;20.40;;;;;;;13.51;39.72;94563.06;4825339;29;20798;-80
2021/03/08 10:21:17;;;;;;;23.95;20.27;;;;;;;11.36;43.91;94622.06;4809722;29;20112;-79
2021/03/08 10:23:42;;;;;;;23.25;20.75;;;;;;;13.56;41.14;94612.69;4811214;29;20500;-78
2021/03/08 10:26:16;;;;;;;26.67;21.63;;;;;;;13.35;41.57;94613.66;4818136;29;20150;-84
2021/03/08 10:28:45;;;;;;;26.80;21.25;;;;;;;12.66;41.78;94611.13;4832762;29;20049;-80
2021/03/08 10:31:27;;;;;;;28.98;19.92;;;;;;;11.87;43.17;94601.22;4827668;29;20034;-80
2021/03/08 10:33:55;;;;;;;24.20;20.55;;;;;;;12.91;41.62;94595.06;4829695;29;20091;-79
2021/03/08 10:36:22;;;;;;;22.85;18.75;;;;;;;13.40;42.04;94593.06;4816579;29;20423;-79
2021/03/08 10:38:55;;;;;;;27.17;20.08;;;;;;;13.83;40.54;94588.34;4832606;29;20460;-81
2021/03/08 10:41:21;;;;;;;25.02;20.23;;;;;;;14.01;39.65;94579.91;4799044;29;20025;-80
2021/03/08 10:43:46;;;;;;;26.60;19.40;;;;;;;13.78;40.84;94588.09;4799248;29;20081;-79
2021/03/08 10:46:12;;;;;;;23.38;17.17;;;;;;;13.72;40.01;94581.91;4805368;29;20502;-80
2021/03/08 10:49:03;;;;;;;22.00;16.40;;;;;;;14.12;39.54;94567.09;4833108;29;20045;-78
2021/03/08 10:51:29;;;;;;;15.73;14.13;;;;;;;13.58;39.46;94569.88;4801369;29;20113;-79
2021/03/08 10:53:59;;;;;;;17.65;13.55;;;;;;;13.59;39.72;94574.09;4816094;29;20111;-76
2021/03/08 10:56:25;;;;;;;;;;;;;;;13.37;39.25;94567.44;4808883;29;20035;-79
2021/03/08 10:58:50;;;;;;;17.42;11.80;;;;;;;12.95;38.83;94560.69;4823004;29;19932;-77
2021/03/08 11:01:16;;;;;;;18.42;13.93;;;;;;;12.72;40.14;94556.78;4820831;29;20815;-76
2021/03/08 11:03:42;;;;;;;17.23;13.05;;;;;;;12.82;40.62;94552.84;4799206;29;20114;-75
2021/03/08 11:06:09;;;;;;;15.13;12.93;;;;;;;13.47;40.55;94546.25;4783758;29;20576;-79
2021/03/08 11:08:38;;;;;;;12.23;10.80;;;;;;;14.18;37.79;94539.44;4805844;29;20038;-80
2021/03/08 11:11:21;;;;;;;16.05;11.55;;;;;;;13.62;38.32;94534.66;4796760;29;20505;-79
2021/03/08 11:13:47;;;;;;;16.70;11.40;;;;;;;13.62;39.02;94494.81;4811151;29;20116;-77
2021/03/08 11:16:13;;;;;;;13.38;11.85;;;;;;;13.89;39.24;94527.66;4813873;29;20499;-80
2021/03/08 11:18:41;;;;;;;18.10;13.52;;;;;;;14.03;38.90;94533.66;4798232;29;20060;-79
2021/03/08 11:21:19;;;;;;;17.50;13.57;;;;;;;13.91;40.21;94514.41;4816301;29;20031;-81
2021/03/08 11:23:46;;;;;;;15.55;12.15;;;;;;;12.49;41.19;94511.13;4813748;29;20026;-75
2021/03/08 11:26:11;;;;;;;13.35;10.43;;;;;;;13.70;38.50;94499.81;4800891;29;20042;-76
2021/03/08 11:28:41;;;;;;;15.57;12.02;;;;;;;13.21;38.29;94492.38;4813715;29;20635;-82
2021/03/08 11:31:18;;;;;;;16.00;11.75;;;;;;;13.41;39.08;94492.41;4796935;29;20555;-80
2021/03/08 11:33:47;;;;;;;13.18;10.40;;;;;;;13.76;37.60;94488.63;4810453;29;20057;-75
2021/03/08 11:36:12;;;;;;;14.15;11.52;;;;;;;13.98;37.16;94479.56;4798819;29;20113;-82
2021/03/08 11:38:37;;;;;;;13.77;12.25;;;;;;;14.98;36.91;94484.25;4815152;29;20700;-80
2021/03/08 11:41:03;;;;;;;18.98;11.70;;;;;;;14.80;35.62;94475.53;4798294;29;20662;-82
2021/03/08 11:43:29;;;;;;;14.32;11.95;;;;;;;14.54;36.55;94473.84;4815786;29;20041;-79
2021/03/08 11:45:55;;;;;;;14.65;10.57;;;;;;;13.74;37.12;94483.59;4798278;29;20034;-79
2021/03/08 11:48:22;;;;;;;14.45;11.52;;;;;;;13.58;37.26;94465.00;4817869;29;20030;-79
2021/03/08 11:50:47;;;;;;;14.98;10.57;;;;;;;13.41;36.89;94464.59;4802771;29;20096;-80
2021/03/08 11:53:14;;;;;;;13.18;10.02;;;;;;;13.82;36.27;94458.38;4822912;29;20607;-77
2021/03/08 11:55:39;;;;;;;15.88;10.93;;;;;;;14.04;36.60;94460.53;4836861;29;20026;-80
2021/03/08 11:58:05;;;;;;;16.13;11.32;;;;;;;14.41;35.90;94460.84;4819719;29;20861;-82
2021/03/08 12:00:32;;;;;;;12.05;10.35;;;;;;;13.94;36.89;94460.13;4836204;29;20033;-81
2021/03/08 12:02:57;;;;;;;12.93;10.73;;;;;;;14.04;36.06;94444.09;4836305;29;20118;-81
2021/03/08 12:05:23;;;;;;;12.93;9.23;;;;;;;14.05;35.74;94440.50;4805758;29;20038;-82
2021/03/08 12:07:48;;;;;;;14.45;9.90;;;;;;;13.36;36.88;94438.38;4836100;29;20026;-77
2021/03/08 12:10:14;;;;;;;11.38;9.75;;;;;;;12.99;37.81;94437.13;4835795;29;20853;-76
2021/03/08 12:12:40;;;;;;;15.52;9.20;;;;;;;13.82;36.92;94440.94;4836505;29;20470;-79
2021/03/08 12:15:06;;;;;;;10.00;7.68;;;;;;;13.88;35.37;94432.31;4833874;29;20090;-79
2021/03/08 12:17:32;;;;;;;8.60;7.80;;;;;;;13.10;34.61;94413.16;4836560;29;20116;-78
2021/03/08 12:19:58;;;;;;;8.80;7.88;;;;;;;14.30;34.99;94420.56;4834937;29;20029;-79
2021/03/08 12:22:23;;;;;;;9.50;6.47;;;;;;;14.17;35.44;94410.19;4836417;29;20161;-80
2021/03/08 12:24:49;;;;;;;8.02;5.55;;;;;;;13.98;34.42;94417.09;4834424;29;20046;-77
2021/03/08 12:27:14;;;;;;;7.60;6.35;;;;;;;13.90;34.87;94411.31;4837548;29;20069;-75
2021/03/08 12:29:40;;;;;;;12.85;6.35;;;;;;;13.76;35.41;94409.72;4835350;29;20046;-79
2021/03/08 12:32:06;;;;;;;7.07;6.38;;;;;;;13.81;34.71;94409.91;4835063;29;20045;-77
2021/03/08 12:34:32;;;;;;;9.68;6.13;;;;;;;13.41;36.44;94398.78;4820425;29;20061;-73
2021/03/08 12:36:57;;;;;;;7.60;6.97;;;;;;;13.38;36.56;94396.56;4834721;29;20040;-77
2021/03/08 12:39:22;;;;;;;7.85;7.05;;;;;;;13.64;35.85;94409.56;4836134;29;20061;-78
2021/03/08 12:41:48;;;;;;;7.50;6.80;;;;;;;13.89;37.42;94400.09;4816119;29;20035;-79
2021/03/08 12:44:13;;;;;;;11.98;6.53;;;;;;;14.29;35.65;94402.56;4816873;29;20034;-79
2021/03/08 12:46:39;;;;;;;8.48;5.93;;;;;;;14.04;35.02;94392.81;4801701;29;20033;-76
2021/03/08 12:49:04;;;;;;;10.90;5.85;;;;;;;13.97;35.26;94396.44;4816083;29;20492;-75
2021/03/08 12:51:30;;;;;;;7.47;5.90;;;;;;;13.32;35.19;94398.19;4817149;29;20022;-75
2021/03/08 12:53:55;;;;;;;7.32;6.22;;;;;;;13.35;36.86;94409.97;4800228;29;20579;-77
2021/03/08 12:56:21;;;;;;;7.20;6.47;;;;;;;13.94;35.64;94402.06;4802028;29;20660;-76
2021/03/08 12:58:47;;;;;;;7.32;6.25;;;;;;;14.53;35.00;94391.44;4785237;29;20030;-78
2021/03/08 13:01:12;;;;;;;8.68;6.65;;;;;;;14.51;33.91;94393.47;4807328;29;20148;-78
2021/03/08 13:03:38;;;;;;;6.47;5.72;;;;;;;14.46;34.90;94388.06;4831262;29;20034;-77
2021/03/08 13:06:03;;;;;;;6.43;4.80;;;;;;;14.77;34.42;94388.09;4817991;29;20045;-77
2021/03/08 13:08:29;;;;;;;10.65;5.03;;;;;;;14.95;33.47;94385.56;4832314;29;20489;-76
2021/03/08 13:10:54;;;;;;;7.18;4.97;;;;;;;15.25;32.92;94386.53;4830960;29;20034;-75
2021/03/08 13:13:22;;;;;;;4.25;3.85;;;;;;;14.69;31.43;94377.91;4832167;29;20026;-78
2021/03/08 13:15:49;;;;;;;6.35;4.60;;;;;;;14.91;32.51;94370.56;4815177;29;20041;-77
2021/03/08 13:18:15;;;;;;;5.72;4.63;;;;;;;14.85;32.33;94374.81;4818597;29;20113;-76
2021/03/08 13:20:41;;;;;;;5.65;4.50;;;;;;;14.40;32.46;94381.88;4816131;29;20034;-76
2021/03/08 13:23:06;;;;;;;4.40;4.00;;;;;;;14.89;30.88;94375.19;4816046;29;20416;-76
2021/03/08 13:25:33;;;;;;;3.47;3.03;;;;;;;15.19;30.14;94376.94;4816557;29;20125;-79
2021/03/08 13:27:58;;;;;;;4.28;3.10;;;;;;;14.82;30.48;94369.22;4816841;29;20038;-76
2021/03/08 13:30:24;;;;;;;7.15;3.42;;;;;;;14.33;31.73;94377.69;4816918;29;20038;-77
2021/03/08 13:32:49;;;;;;;6.88;3.05;;;;;;;13.71;31.29;94379.91;4814403;29;20419;-73
2021/03/08 13:35:15;;;;;;;6.80;3.00;;;;;;;13.34;32.00;94390.97;4819220;29;20037;-72
2021/03/08 13:37:41;;;;;;;6.68;3.05;;;;;;;13.44;32.63;94391.38;4787797;29;20042;-75
2021/03/08 13:40:07;;;;;;;3.67;3.13;;;;;;;13.45;32.67;94392.16;4819068;29;20089;-75
2021/03/08 13:42:34;;;;;;;5.03;3.58;;;;;;;13.35;32.43;94391.78;4835849;29;20480;-77
2021/03/08 13:45:00;;;;;;;6.88;3.03;;;;;;;13.20;32.63;94387.56;4827574;29;20021;-77
2021/03/08 13:47:25;;;;;;;4.22;3.47;;;;;;;13.44;33.39;94390.56;4804370;29;20567;-76
2021/03/08 13:49:51;;;;;;;3.78;3.35;;;;;;;13.44;32.96;94367.94;4802377;29;20042;-74
2021/03/08 13:52:16;;;;;;;6.88;2.92;;;;;;;13.56;33.41;94394.13;4836358;29;20491;-75
2021/03/08 13:54:41;;;;;;;6.55;3.30;;;;;;;12.93;33.81;94393.75;4828696;29;20457;-75
2021/03/08 13:57:07;;;;;;;5.43;3.97;;;;;;;13.10;33.32;94400.16;4818736;29;20037;-77
2021/03/08 13:59:33;;;;;;;3.53;2.90;;;;;;;13.07;33.57;94392.72;4817801;29;20038;-77
2021/03/08 14:01:58;;;;;;;5.43;3.65;;;;;;;12.92;32.97;94393.94;4818415;29;20034;-78
2021/03/08 14:04:23;;;;;;;4.40;4.00;;;;;;;12.75;34.02;94370.13;4818360;29;20477;-74
2021/03/08 14:06:49;;;;;;;3.72;3.20;;;;;;;12.81;33.36;94392.72;4833123;29;20034;-77
2021/03/08 14:09:14;;;;;;;6.13;3.60;;;;;;;12.89;33.80;94386.53;4818836;29;20038;-75
2021/03/08 14:11:40;;;;;;;7.68;3.78;;;;;;;12.47;34.17;94379.84;4801641;29;20519;-75
2021/03/08 14:14:06;;;;;;;9.07;3.50;;;;;;;12.31;34.71;94375.03;4818804;29;20038;-76
2021/03/08 14:16:31;;;;;;;6.57;4.70;;;;;;;12.54;34.56;94389.28;4803507;29;20030;-75
2021/03/08 14:18:56;;;;;;;6.00;4.25;;;;;;;12.35;34.39;94390.03;4819224;29;20033;-76
2021/03/08 14:21:22;;;;;;;4.82;4.35;;;;;;;12.20;34.64;94402.34;4818038;29;20026;-75
2021/03/08 14:23:47;;;;;;;10.13;4.30;;;;;;;12.31;34.67;94386.22;4817087;29;20107;-77
2021/03/08 14:26:17;;;;;;;10.85;4.38;;;;;;;12.40;34.30;94379.03;4833720;29;20061;-77
2021/03/08 14:28:42;;;;;;;5.85;3.72;;;;;;;12.50;34.68;94382.06;4832142;29;20061;-76
2021/03/08 14:31:08;;;;;;;6.20;4.18;;;;;;;12.30;34.80;94384.59;4818640;29;20519;-75
2021/03/08 14:33:33;;;;;;;6.10;4.55;;;;;;;12.15;34.77;94392.56;4817653;29;20036;-76
2021/03/08 14:35:59;;;;;;;4.90;4.28;;;;;;;12.14;34.38;94393.53;4818086;29;20393;-75
2021/03/08 14:38:24;;;;;;;4.47;4.07;;;;;;;11.59;34.90;94388.47;4818832;29;20026;-76
2021/03/08 14:40:50;;;;;;;5.00;4.50;;;;;;;11.54;35.55;94394.22;4827633;29;20062;-77
2021/03/08 14:43:15;;;;;;;6.75;4.57;;;;;;;11.28;35.63;94390.63;4818864;29;20415;-75
2021/03/08 14:45:41;;;;;;;9.35;5.40;;;;;;;11.34;36.10;94395.88;4818612;29;20456;-78
2021/03/08 14:48:07;;;;;;;6.30;4.60;;;;;;;11.19;35.65;94408.13;4802450;29;20037;-76
2021/03/08 14:50:32;;;;;;;5.13;4.63;;;;;;;11.17;36.54;94399.75;4826914;29;20408;-76
2021/03/08 14:52:58;;;;;;;7.88;5.10;;;;;;;11.15;35.83;94399.13;4807570;29;20033;-77
2021/03/08 14:55:23;;;;;;;10.27;6.95;;;;;;;11.33;36.07;94394.28;4803541;29;20480;-77
2021/03/08 14:57:49;;;;;;;10.25;5.85;;;;;;;11.14;36.02;94402.72;4819789;29;20033;-76
2021/03/08 15:00:15;;;;;;;10.02;6.30;;;;;;;11.11;37.15;94401.28;4839621;29;20034;-77
2021/03/08 15:02:40;;;;;;;7.63;6.15;;;;;;;11.09;36.33;94408.44;4835808;29;20524;-81
2021/03/08 15:05:06;;;;;;;7.80;6.18;;;;;;;11.01;36.74;94405.97;4820314;29;20042;-76
2021/03/08 15:07:32;;;;;;;6.60;5.90;;;;;;;11.09;36.65;94411.03;4843412;29;20487;-80
2021/03/08 15:09:58;;;;;;;6.05;5.22;;;;;;;10.90;37.33;94413.47;4828876;29;20041;-77
2021/03/08 15:12:24;;;;;;;6.75;4.97;;;;;;;10.76;37.66;94414.31;4812554;29;20265;-77
2021/03/08 15:14:50;;;;;;;7.50;5.32;;;;;;;10.69;37.04;94405.69;4844199;29;20058;-79
2021/03/08 15:17:16;;;;;;;6.88;5.65;;;;;;;10.71;36.53;94414.06;4844322;29;20488;-78
2021/03/08 15:19:44;;;;;;;8.27;6.55;;;;;;;10.74;36.64;94422.28;4827717;29;20038;-78
2021/03/08 15:22:10;;;;;;;6.30;5.07;;;;;;;10.67;36.82;94411.06;4842934;29;20069;-80
2021/03/08 15:24:37;;;;;;;6.25;5.10;;;;;;;10.80;36.99;94413.78;4841646;29;20030;-79
2021/03/08 15:27:03;;;;;;;5.72;5.20;;;;;;;10.59;36.75;94416.38;4822549;29;20030;-78
2021/03/08 15:29:28;;;;;;;5.90;4.65;;;;;;;10.49;36.71;94408.91;4838134;29;20126;-78
2021/03/08 15:31:54;;;;;;;9.20;4.90;;;;;;;10.58;37.04;94419.94;4840904;29;20034;-79
2021/03/08 15:34:19;;;;;;;9.07;5.30;;;;;;;10.56;37.50;94424.50;4826859;29;20484;-77
2021/03/08 15:36:45;;;;;;;7.47;5.70;;;;;;;10.47;36.98;94428.97;4837741;29;20030;-81
2021/03/08 15:39:10;;;;;;;5.05;4.55;;;;;;;10.34;37.25;94418.47;4842286;29;20034;-79
2021/03/08 15:41:35;;;;;;;5.45;4.95;;;;;;;10.14;38.24;94432.19;4847238;29;20034;-80
2021/03/08 15:44:01;;;;;;;5.82;5.13;;;;;;;10.01;38.37;94427.63;4829296;29;20049;-79
2021/03/08 15:46:26;;;;;;;5.82;5.25;;;;;;;9.94;38.59;94434.47;4817714;29;20037;-79
2021/03/08 15:48:52;;;;;;;6.45;4.85;;;;;;;9.75;38.49;94432.44;4806362;29;20539;-79
2021/03/08 15:51:17;;;;;;;8.25;4.97;;;;;;;9.51;39.46;94442.03;4824849;29;20030;-78
2021/03/08 15:53:43;;;;;;;6.45;4.90;;;;;;;9.54;39.06;94433.94;4823170;29;20061;-78
2021/03/08 15:56:08;;;;;;;7.15;6.53;;;;;;;9.43;39.18;94438.75;4818993;29;20037;-78
2021/03/08 15:58:34;;;;;;;17.42;12.73;;;;;;;9.31;40.12;94448.69;4820895;29;20060;-80
2021/03/08 16:00:59;;;;;;;19.13;13.40;;;;;;;9.29;40.04;94450.66;4838930;29;20049;-81
2021/03/08 16:03:24;;;;;;;8.68;7.32;;;;;;;8.85;40.54;94440.22;4837614;29;20029;-81
2021/03/08 16:05:50;;;;;;;9.60;7.18;;;;;;;9.03;40.39;94447.66;4826990;29;20034;-81
2021/03/08 16:08:17;;;;;;;10.55;6.78;;;;;;;9.03;40.23;94452.81;4812961;29;20485;-79
2021/03/08 16:10:42;;;;;;;9.65;6.47;;;;;;;8.91;40.29;94454.22;4817791;29;20094;-79
2021/03/08 16:13:08;;;;;;;6.78;6.07;;;;;;;8.56;40.63;94455.56;4801876;29;20030;-80
2021/03/08 16:15:33;;;;;;;9.73;6.55;;;;;;;8.39;41.45;94466.94;4802262;29;20528;-80
2021/03/08 16:17:59;;;;;;;16.30;13.10;;;;;;;8.31;41.13;94465.25;4815665;29;20038;-79
2021/03/08 16:20:24;;;;;;;24.58;15.98;;;;;;;8.29;41.39;94468.94;4831922;29;20034;-82
2021/03/08 16:22:50;;;;;;;46.95;31.50;;;;;;;8.25;41.72;94468.44;4816316;29;20038;-80
2021/03/08 16:25:15;;;;;;;30.95;23.08;;;;;;;8.11;42.40;94470.94;4802764;29;20488;-82
2021/03/08 16:27:41;;;;;;;35.20;20.92;;;;;;;7.94;42.99;94473.56;4801998;29;20065;-79
2021/03/08 16:30:08;;;;;;;52.53;28.63;;;;;;;7.76;43.47;94488.47;4801905;29;20045;-81
2021/03/08 16:32:34;;;;;;;93.38;40.63;;;;;;;7.58;43.65;94484.47;4817672;29;20036;-79
2021/03/08 16:35:00;;;;;;;53.30;29.02;;;;;;;7.48;43.32;94489.78;4840348;29;20034;-79
2021/03/08 16:37:25;;;;;;;35.65;19.70;;;;;;;7.57;43.25;94491.41;4826924;29;20487;-79
2021/03/08 16:39:51;;;;;;;35.38;26.63;;;;;;;7.47;43.53;94495.09;4844273;29;20033;-79
2021/03/08 16:42:16;;;;;;;41.72;26.35;;;;;;;7.37;44.33;94492.69;4831726;29;20511;-79
2021/03/08 16:44:42;;;;;;;40.38;25.77;;;;;;;7.31;44.79;94495.94;4830461;29;20050;-78
2021/03/08 16:47:07;;;;;;;22.33;16.83;;;;;;;7.19;44.92;94495.44;4823150;29;20045;-79
2021/03/08 16:49:33;;;;;;;23.63;16.08;;;;;;;7.06;45.06;94496.91;4824644;29;20042;-78
2021/03/08 16:51:58;;;;;;;43.97;26.45;;;;;;;7.05;44.89;94497.88;4848579;29;20034;-77
2021/03/08 16:54:23;;;;;;;21.63;16.27;;;;;;;7.06;45.62;94514.94;4851064;29;20054;-80
2021/03/08 16:56:50;;;;;;;12.68;10.35;;;;;;;7.02;44.90;94500.75;4861617;29;20030;-80
2021/03/08 16:59:15;;;;;;;22.20;15.77;;;;;;;7.04;45.28;94516.84;4836897;29;20044;-79
2021/03/08 17:01:41;;;;;;;17.10;10.98;;;;;;;7.13;44.44;94523.59;4834740;29;20577;-79
2021/03/08 17:04:06;;;;;;;10.40;8.48;;;;;;;6.90;45.10;94526.00;4826678;29;20484;-78
2021/03/08 17:06:32;;;;;;;13.48;9.00;;;;;;;6.72;46.02;94523.56;4842101;29;20026;-79
2021/03/08 17:08:57;;;;;;;23.77;12.23;;;;;;;6.59;46.07;94528.34;4823698;29;20030;-79
2021/03/08 17:11:23;;;;;;;18.65;11.85;;;;;;;6.46;46.88;94537.47;4832058;29;20362;-79
2021/03/08 17:13:48;;;;;;;28.52;17.88;;;;;;;6.36;46.60;94537.59;4829991;29;20030;-80
2021/03/08 17:16:13;;;;;;;21.42;15.80;;;;;;;6.32;46.66;94538.88;4829152;29;20057;-78
2021/03/08 17:18:39;;;;;;;22.67;11.07;;;;;;;6.25;47.25;94543.03;4825588;29;20034;-78
2021/03/08 17:21:05;;;;;;;12.15;7.90;;;;;;;6.19;46.74;94544.47;4824545;29;20046;-77
2021/03/08 17:23:30;;;;;;;9.25;7.43;;;;;;;6.09;47.26;94551.47;4821491;29;20046;-78